createdAt,value
2018-06-13T01:30:49.448Z,0.00
2018-06-13T01:30:50.019Z,0.00
2018-06-13T01:30:50.618Z,0.00
2018-06-13T01:30:51.219Z,0.00
2018-06-13T01:30:51.818Z,0.00
2018-06-13T01:30:52.417Z,0.00
2018-06-13T01:30:53.017Z,0.00
2018-06-13T01:30:53.619Z,0.00
2018-06-13T01:31:47.100Z,0.00
2018-06-13T01:31:47.675Z,0.00
2018-06-13T01:31:48.270Z,0.00
2018-06-13T01:31:48.872Z,0.00
2018-06-13T01:31:49.469Z,0.00
2018-06-13T01:31:50.070Z,0.00
2018-06-13T01:31:50.670Z,0.00
2018-06-13T01:31:51.269Z,0.00
2018-06-13T01:32:45.775Z,0.00
2018-06-13T01:32:46.346Z,0.00
2018-06-13T01:32:46.945Z,0.00
2018-06-13T01:32:47.550Z,0.00
2018-06-13T01:32:48.145Z,0.00
2018-06-13T01:32:48.745Z,0.00
2018-06-13T01:32:49.345Z,0.00
2018-06-13T01:32:49.944Z,0.00
2018-06-13T01:33:44.453Z,0.00
2018-06-13T01:33:45.022Z,0.00
2018-06-13T01:33:45.622Z,0.00
2018-06-13T01:33:46.223Z,0.00
2018-06-13T01:33:46.821Z,0.00
2018-06-13T01:33:47.421Z,0.00
2018-06-13T01:33:48.022Z,0.00
2018-06-13T01:33:48.621Z,0.00
2018-06-13T01:34:43.131Z,0.00
2018-06-13T01:34:43.698Z,0.00
2018-06-13T01:34:44.305Z,0.00
2018-06-13T01:34:44.896Z,0.00
2018-06-13T01:34:45.499Z,0.00
2018-06-13T01:34:46.098Z,0.00
2018-06-13T01:34:46.696Z,0.00
2018-06-13T01:34:47.296Z,0.00
2018-06-13T01:35:41.804Z,0.00
2018-06-13T01:35:42.374Z,0.00
2018-06-13T01:35:42.973Z,0.00
2018-06-13T01:35:43.573Z,0.00
2018-06-13T01:35:44.174Z,0.00
2018-06-13T01:35:44.773Z,0.00
2018-06-13T01:35:45.375Z,0.00
2018-06-13T01:35:45.973Z,0.00
2018-06-13T01:36:39.457Z,0.00
2018-06-13T01:36:40.032Z,0.00
2018-06-13T01:36:40.631Z,0.00
2018-06-13T01:36:41.227Z,0.00
2018-06-13T01:36:41.827Z,0.00
2018-06-13T01:36:42.427Z,0.00
2018-06-13T01:36:43.026Z,0.00
2018-06-13T01:36:43.631Z,0.00
2018-06-13T01:37:38.133Z,0.00
2018-06-13T01:37:38.703Z,0.00
2018-06-13T01:37:39.304Z,0.00
2018-06-13T01:37:39.904Z,0.00
2018-06-13T01:37:40.502Z,0.00
2018-06-13T01:37:41.102Z,0.00
2018-06-13T01:37:41.701Z,0.00
2018-06-13T01:37:42.303Z,0.00
2018-06-13T01:38:35.785Z,0.00
2018-06-13T01:38:36.354Z,0.00
2018-06-13T01:38:36.955Z,0.00
2018-06-13T01:38:37.556Z,0.00
2018-06-13T01:38:38.154Z,0.00
2018-06-13T01:38:38.753Z,0.00
2018-06-13T01:38:39.354Z,0.00
2018-06-13T01:38:39.953Z,0.00
2018-06-13T01:39:33.437Z,0.00
2018-06-13T01:39:34.007Z,0.00
2018-06-13T01:39:34.607Z,0.00
2018-06-13T01:39:35.207Z,0.00
2018-06-13T01:39:35.806Z,0.00
2018-06-13T01:39:36.406Z,0.00
2018-06-13T01:39:37.006Z,0.00
2018-06-13T01:39:37.604Z,0.00
2018-06-13T01:40:32.111Z,0.00
2018-06-13T01:40:32.682Z,0.00
2018-06-13T01:40:33.281Z,0.00
2018-06-13T01:40:33.881Z,0.00
2018-06-13T01:40:34.481Z,0.00
2018-06-13T01:40:35.081Z,0.00
2018-06-13T01:40:35.681Z,0.00
2018-06-13T01:40:36.282Z,0.00
2018-06-13T01:41:30.790Z,0.00
2018-06-13T01:41:31.359Z,0.00
2018-06-13T01:41:31.958Z,0.00
2018-06-13T01:41:32.557Z,0.00
2018-06-13T01:41:33.157Z,0.00
2018-06-13T01:41:33.758Z,0.00
2018-06-13T01:41:34.357Z,0.00
2018-06-13T01:41:34.957Z,0.00
2018-06-13T01:42:28.443Z,0.00
2018-06-13T01:42:29.010Z,0.00
2018-06-13T01:42:29.610Z,0.00
2018-06-13T01:42:30.210Z,0.00
2018-06-13T01:42:30.811Z,0.00
2018-06-13T01:42:31.409Z,0.00
2018-06-13T01:42:32.010Z,0.00
2018-06-13T01:42:32.608Z,0.00
2018-06-13T01:43:27.116Z,0.00
2018-06-13T01:43:27.687Z,0.00
2018-06-13T01:43:28.292Z,0.00
2018-06-13T01:43:28.949Z,0.00
2018-06-13T01:43:29.485Z,0.00
2018-06-13T01:43:30.085Z,0.00
2018-06-13T01:43:30.684Z,0.00
2018-06-13T01:43:31.285Z,0.00
2018-06-13T01:44:25.789Z,0.00
2018-06-13T01:44:26.363Z,0.00
2018-06-13T01:44:26.960Z,0.00
2018-06-13T01:44:27.561Z,0.00
2018-06-13T01:44:28.161Z,0.00
2018-06-13T01:44:28.762Z,0.00
2018-06-13T01:44:29.361Z,0.00
2018-06-13T01:44:29.962Z,0.00
2018-06-13T01:45:24.468Z,0.00
2018-06-13T01:45:25.038Z,0.00
2018-06-13T01:45:25.636Z,0.00
2018-06-13T01:45:26.237Z,0.00
2018-06-13T01:45:26.835Z,0.00
2018-06-13T01:45:27.435Z,0.00
2018-06-13T01:45:28.037Z,0.00
2018-06-13T01:45:28.636Z,0.00
2018-06-13T01:46:22.119Z,0.00
2018-06-13T01:46:22.693Z,0.00
2018-06-13T01:46:23.290Z,0.00
2018-06-13T01:46:23.890Z,0.00
2018-06-13T01:46:24.489Z,0.00
2018-06-13T01:46:25.090Z,0.00
2018-06-13T01:46:25.690Z,0.00
2018-06-13T01:46:26.290Z,0.00
2018-06-13T01:47:19.770Z,0.00
2018-06-13T01:47:20.343Z,0.00
2018-06-13T01:47:20.941Z,0.00
2018-06-13T01:47:21.541Z,0.00
2018-06-13T01:47:22.144Z,0.00
2018-06-13T01:47:22.743Z,0.00
2018-06-13T01:47:23.341Z,0.00
2018-06-13T01:47:23.946Z,0.00
2018-06-13T01:48:18.447Z,0.00
2018-06-13T01:48:19.016Z,0.00
2018-06-13T01:48:19.616Z,0.00
2018-06-13T01:48:20.216Z,0.00
2018-06-13T01:48:20.815Z,0.00
2018-06-13T01:48:21.416Z,0.00
2018-06-13T01:48:22.016Z,0.00
2018-06-13T01:48:22.615Z,0.00
2018-06-13T01:49:17.126Z,0.00
2018-06-13T01:49:17.693Z,0.00
2018-06-13T01:49:18.298Z,0.00
2018-06-13T01:49:18.891Z,0.00
2018-06-13T01:49:19.492Z,0.00
2018-06-13T01:49:20.092Z,0.00
2018-06-13T01:49:20.691Z,0.00
2018-06-13T01:49:21.290Z,0.00
2018-06-13T01:50:15.798Z,0.00
2018-06-13T01:50:16.370Z,0.00
2018-06-13T01:50:16.971Z,0.00
2018-06-13T01:50:17.568Z,0.00
2018-06-13T01:50:18.168Z,0.00
2018-06-13T01:50:18.768Z,0.00
2018-06-13T01:50:19.370Z,0.00
2018-06-13T01:50:19.967Z,0.00
2018-06-13T01:51:14.472Z,0.00
2018-06-13T01:51:15.043Z,0.00
2018-06-13T01:51:15.644Z,0.00
2018-06-13T01:51:16.243Z,0.00
2018-06-13T01:51:16.846Z,0.00
2018-06-13T01:51:17.443Z,0.00
2018-06-13T01:51:18.046Z,0.00
2018-06-13T01:51:18.643Z,0.00
2018-06-13T01:52:13.153Z,0.00
2018-06-13T01:52:13.720Z,0.00
2018-06-13T01:52:14.318Z,0.00
2018-06-13T01:52:14.920Z,0.00
2018-06-13T01:52:15.520Z,0.00
2018-06-13T01:52:16.120Z,0.00
2018-06-13T01:52:16.719Z,0.00
2018-06-13T01:52:17.320Z,0.00
2018-06-13T01:53:11.824Z,0.00
2018-06-13T01:53:12.394Z,0.00
2018-06-13T01:53:12.995Z,0.00
2018-06-13T01:53:13.596Z,0.00
2018-06-13T01:53:14.195Z,0.00
2018-06-13T01:53:14.796Z,0.00
2018-06-13T01:53:15.396Z,0.00
2018-06-13T01:53:15.995Z,0.00
2018-06-13T01:54:09.478Z,0.00
2018-06-13T01:54:10.047Z,0.00
2018-06-13T01:54:10.647Z,0.00
2018-06-13T01:54:11.247Z,0.00
2018-06-13T01:54:11.848Z,0.00
2018-06-13T01:54:12.447Z,0.00
2018-06-13T01:54:13.061Z,0.00
2018-06-13T01:54:13.647Z,0.00
2018-06-13T01:55:08.152Z,0.00
2018-06-13T01:55:08.725Z,0.00
2018-06-13T01:55:09.323Z,0.00
2018-06-13T01:55:09.922Z,0.00
2018-06-13T01:55:10.522Z,0.00
2018-06-13T01:55:11.125Z,0.00
2018-06-13T01:55:11.723Z,0.00
2018-06-13T01:55:12.322Z,0.00
2018-06-13T01:56:05.805Z,0.00
2018-06-13T01:56:06.377Z,0.00
2018-06-13T01:56:06.976Z,0.00
2018-06-13T01:56:07.576Z,0.00
2018-06-13T01:56:08.176Z,0.00
2018-06-13T01:56:08.775Z,0.00
2018-06-13T01:56:09.375Z,0.00
2018-06-13T01:56:09.976Z,0.00
2018-06-13T01:57:04.481Z,0.00
2018-06-13T01:57:05.050Z,0.00
2018-06-13T01:57:05.649Z,0.00
2018-06-13T01:57:06.250Z,0.00
2018-06-13T01:57:06.850Z,0.00
2018-06-13T01:57:07.450Z,0.00
2018-06-13T01:57:08.049Z,0.00
2018-06-13T01:57:08.649Z,0.00
2018-06-13T01:58:14.837Z,0.00
2018-06-13T01:58:15.399Z,0.00
2018-06-13T01:58:16.000Z,0.00
2018-06-13T01:58:16.598Z,0.00
2018-06-13T01:58:17.198Z,0.00
2018-06-13T01:58:17.798Z,0.00
2018-06-13T01:58:18.399Z,0.00
2018-06-13T01:58:18.998Z,0.00
2018-06-13T01:59:12.480Z,0.00
2018-06-13T01:59:13.052Z,0.00
2018-06-13T01:59:13.653Z,0.00
2018-06-13T01:59:14.250Z,0.00
2018-06-13T01:59:14.851Z,0.00
2018-06-13T01:59:15.452Z,0.00
2018-06-13T01:59:16.051Z,0.00
2018-06-13T01:59:16.650Z,0.00
2018-06-13T02:00:11.158Z,0.00
2018-06-13T02:00:11.728Z,0.00
2018-06-13T02:00:12.328Z,0.00
2018-06-13T02:00:12.928Z,0.00
2018-06-13T02:00:13.527Z,0.00
2018-06-13T02:00:14.126Z,0.00
2018-06-13T02:00:14.728Z,0.00
2018-06-13T02:00:15.327Z,0.00
2018-06-13T02:01:08.811Z,0.00
2018-06-13T02:01:09.379Z,0.00
2018-06-13T02:01:09.980Z,0.00
2018-06-13T02:01:10.579Z,0.00
2018-06-13T02:01:11.179Z,0.00
2018-06-13T02:01:11.782Z,0.00
2018-06-13T02:01:12.379Z,0.00
2018-06-13T02:01:12.978Z,0.00
2018-06-13T02:02:07.482Z,0.00
2018-06-13T02:02:08.054Z,0.00
2018-06-13T02:02:08.653Z,0.00
2018-06-13T02:02:09.253Z,0.00
2018-06-13T02:02:09.863Z,0.00
2018-06-13T02:02:10.454Z,0.00
2018-06-13T02:02:11.053Z,0.00
2018-06-13T02:02:11.654Z,0.00
2018-06-13T02:03:06.165Z,0.00
2018-06-13T02:03:06.730Z,0.00
2018-06-13T02:03:07.332Z,0.00
2018-06-13T02:03:07.930Z,0.00
2018-06-13T02:03:08.528Z,0.00
2018-06-13T02:03:09.129Z,0.00
2018-06-13T02:03:09.731Z,0.00
2018-06-13T02:03:10.330Z,0.00
2018-06-13T02:04:04.834Z,0.00
2018-06-13T02:04:05.406Z,0.00
2018-06-13T02:04:06.004Z,0.00
2018-06-13T02:04:06.605Z,0.00
2018-06-13T02:04:07.207Z,0.00
2018-06-13T02:04:07.805Z,0.00
2018-06-13T02:04:08.407Z,0.00
2018-06-13T02:04:09.004Z,0.00
2018-06-13T02:05:03.512Z,0.00
2018-06-13T02:05:04.081Z,0.00
2018-06-13T02:05:04.682Z,0.00
2018-06-13T02:05:05.281Z,0.00
2018-06-13T02:05:05.880Z,0.00
2018-06-13T02:05:06.488Z,0.00
2018-06-13T02:05:07.083Z,0.00
2018-06-13T02:05:07.681Z,0.00
2018-06-13T02:06:02.188Z,0.00
2018-06-13T02:06:02.758Z,0.00
2018-06-13T02:06:03.355Z,0.00
2018-06-13T02:06:03.956Z,0.00
2018-06-13T02:06:04.559Z,0.00
2018-06-13T02:06:05.157Z,0.00
2018-06-13T02:06:05.756Z,0.00
2018-06-13T02:06:06.357Z,0.00
2018-06-13T02:06:59.841Z,0.00
2018-06-13T02:07:00.409Z,0.00
2018-06-13T02:07:01.010Z,0.00
2018-06-13T02:07:01.612Z,0.00
2018-06-13T02:07:02.209Z,0.00
2018-06-13T02:07:02.815Z,0.00
2018-06-13T02:07:03.410Z,0.00
2018-06-13T02:07:04.010Z,0.00
2018-06-13T02:07:58.515Z,0.00
2018-06-13T02:07:59.086Z,0.00
2018-06-13T02:07:59.685Z,0.00
2018-06-13T02:08:00.284Z,0.00
2018-06-13T02:08:00.884Z,0.00
2018-06-13T02:08:01.489Z,0.00
2018-06-13T02:08:02.088Z,0.00
2018-06-13T02:08:02.684Z,0.00
2018-06-13T02:08:57.190Z,0.00
2018-06-13T02:08:57.760Z,0.00
2018-06-13T02:08:58.361Z,0.00
2018-06-13T02:08:58.962Z,0.00
2018-06-13T02:08:59.561Z,0.00
2018-06-13T02:09:00.160Z,0.00
2018-06-13T02:09:00.760Z,0.00
2018-06-13T02:09:01.361Z,0.00
2018-06-13T02:09:54.842Z,0.00
2018-06-13T02:09:55.412Z,0.00
2018-06-13T02:09:56.014Z,0.00
2018-06-13T02:09:56.614Z,0.00
2018-06-13T02:09:57.212Z,0.00
2018-06-13T02:09:57.815Z,0.00
2018-06-13T02:09:58.412Z,0.00
2018-06-13T02:09:59.014Z,0.00
2018-06-13T02:10:53.516Z,0.00
2018-06-13T02:10:54.090Z,0.00
2018-06-13T02:10:54.688Z,0.00
2018-06-13T02:10:55.288Z,0.00
2018-06-13T02:10:55.891Z,0.00
2018-06-13T02:10:56.487Z,0.00
2018-06-13T02:10:57.087Z,0.00
2018-06-13T02:10:57.687Z,0.00
2018-06-13T02:11:51.171Z,0.00
2018-06-13T02:11:51.742Z,0.00
2018-06-13T02:11:52.339Z,0.00
2018-06-13T02:11:52.941Z,0.00
2018-06-13T02:11:53.541Z,0.00
2018-06-13T02:11:54.141Z,0.00
2018-06-13T02:11:54.740Z,0.00
2018-06-13T02:11:55.339Z,0.00
2018-06-13T02:12:48.823Z,0.00
2018-06-13T02:12:49.395Z,0.00
2018-06-13T02:12:49.995Z,0.00
2018-06-13T02:12:50.592Z,0.00
2018-06-13T02:12:51.191Z,0.00
2018-06-13T02:12:51.793Z,0.00
2018-06-13T02:12:52.391Z,0.00
2018-06-13T02:12:52.993Z,0.00
2018-06-13T02:13:46.473Z,0.00
2018-06-13T02:13:47.044Z,0.00
2018-06-13T02:13:47.645Z,0.00
2018-06-13T02:13:48.251Z,0.00
2018-06-13T02:13:48.843Z,0.00
2018-06-13T02:13:49.445Z,0.00
2018-06-13T02:13:50.043Z,0.00
2018-06-13T02:13:50.645Z,0.00
2018-06-13T02:14:44.127Z,0.00
2018-06-13T02:14:44.698Z,0.00
2018-06-13T02:14:45.295Z,0.00
2018-06-13T02:14:45.895Z,0.00
2018-06-13T02:14:46.495Z,0.00
2018-06-13T02:14:47.095Z,0.00
2018-06-13T02:14:47.695Z,0.00
2018-06-13T02:14:48.294Z,0.00
2018-06-13T02:15:42.800Z,0.00
2018-06-13T02:15:43.371Z,0.00
2018-06-13T02:15:43.972Z,0.00
2018-06-13T02:15:44.569Z,0.00
2018-06-13T02:15:45.169Z,0.00
2018-06-13T02:15:45.770Z,0.00
2018-06-13T02:15:46.372Z,0.00
2018-06-13T02:15:46.970Z,0.00
2018-06-13T02:16:41.476Z,0.00
2018-06-13T02:16:42.048Z,0.00
2018-06-13T02:16:42.647Z,0.00
2018-06-13T02:16:43.245Z,0.00
2018-06-13T02:16:43.846Z,0.00
2018-06-13T02:16:44.446Z,0.00
2018-06-13T02:16:45.046Z,0.00
2018-06-13T02:16:45.645Z,0.00
2018-06-13T02:17:40.152Z,0.00
2018-06-13T02:17:40.720Z,0.00
2018-06-13T02:17:41.321Z,0.00
2018-06-13T02:17:41.921Z,0.00
2018-06-13T02:17:42.524Z,0.00
2018-06-13T02:17:43.121Z,0.00
2018-06-13T02:17:43.721Z,0.00
2018-06-13T02:17:44.321Z,0.00
2018-06-13T02:18:37.800Z,0.00
2018-06-13T02:18:38.372Z,0.00
2018-06-13T02:18:38.972Z,0.00
2018-06-13T02:18:39.572Z,0.00
2018-06-13T02:18:40.173Z,0.00
2018-06-13T02:18:40.772Z,0.00
2018-06-13T02:18:41.371Z,0.00
2018-06-13T02:18:41.971Z,0.00
2018-06-13T02:19:36.474Z,0.00
2018-06-13T02:19:37.047Z,0.00
2018-06-13T02:19:37.645Z,0.00
2018-06-13T02:19:38.246Z,0.00
2018-06-13T02:19:38.846Z,0.00
2018-06-13T02:19:39.445Z,0.00
2018-06-13T02:19:40.046Z,0.00
2018-06-13T02:19:40.647Z,0.00
2018-06-13T02:20:34.126Z,0.00
2018-06-13T02:20:34.699Z,0.00
2018-06-13T02:20:35.300Z,0.00
2018-06-13T02:20:35.900Z,0.00
2018-06-13T02:20:36.499Z,0.00
2018-06-13T02:20:37.098Z,0.00
2018-06-13T02:20:37.699Z,0.00
2018-06-13T02:20:38.299Z,0.00
2018-06-13T02:21:32.802Z,0.00
2018-06-13T02:21:33.375Z,0.00
2018-06-13T02:21:34.025Z,0.00
2018-06-13T02:21:34.626Z,0.00
2018-06-13T02:21:35.187Z,0.00
2018-06-13T02:21:35.778Z,0.00
2018-06-13T02:21:36.417Z,0.00
2018-06-13T02:21:37.020Z,0.00
2018-06-13T02:22:30.462Z,0.00
2018-06-13T02:22:31.029Z,0.00
2018-06-13T02:22:31.626Z,0.00
2018-06-13T02:22:32.226Z,0.00
2018-06-13T02:22:32.826Z,0.00
2018-06-13T02:22:33.426Z,0.00
2018-06-13T02:22:34.027Z,0.00
2018-06-13T02:22:34.627Z,0.00
2018-06-13T02:23:28.107Z,0.00
2018-06-13T02:23:28.680Z,0.00
2018-06-13T02:23:29.276Z,0.00
2018-06-13T02:23:29.877Z,0.00
2018-06-13T02:23:30.476Z,0.00
2018-06-13T02:23:31.077Z,0.00
2018-06-13T02:23:31.676Z,0.00
2018-06-13T02:23:32.276Z,0.00
2018-06-13T02:24:25.768Z,0.00
2018-06-13T02:24:26.331Z,0.00
2018-06-13T02:24:26.929Z,0.00
2018-06-13T02:24:27.530Z,0.00
2018-06-13T02:24:28.128Z,0.00
2018-06-13T02:24:28.733Z,0.00
2018-06-13T02:24:29.330Z,0.00
2018-06-13T02:24:29.928Z,0.00
2018-06-13T02:25:23.410Z,0.00
2018-06-13T02:25:23.983Z,0.00
2018-06-13T02:25:24.585Z,0.00
2018-06-13T02:25:25.182Z,0.00
2018-06-13T02:25:25.782Z,0.00
2018-06-13T02:25:26.383Z,0.00
2018-06-13T02:25:26.981Z,0.00
2018-06-13T02:25:27.581Z,0.00
2018-06-13T02:26:21.062Z,0.00
2018-06-13T02:26:21.634Z,0.00
2018-06-13T02:26:22.233Z,0.00
2018-06-13T02:26:22.834Z,0.00
2018-06-13T02:26:23.433Z,0.00
2018-06-13T02:26:24.033Z,0.00
2018-06-13T02:26:24.633Z,0.00
2018-06-13T02:26:25.234Z,0.00
2018-06-13T02:27:19.808Z,4.00
2018-06-13T02:27:20.343Z,4.00
2018-06-13T02:27:20.935Z,4.00
2018-06-13T02:27:21.556Z,4.00
2018-06-13T02:27:22.135Z,4.00
2018-06-13T02:27:22.730Z,4.00
2018-06-13T02:27:23.361Z,4.00
2018-06-13T02:27:23.961Z,4.00
2018-06-13T02:28:18.411Z,4.00
2018-06-13T02:28:18.984Z,4.00
2018-06-13T02:28:19.583Z,4.00
2018-06-13T02:28:20.184Z,4.00
2018-06-13T02:28:20.784Z,4.00
2018-06-13T02:28:21.383Z,4.00
2018-06-13T02:28:21.983Z,0.00
2018-06-13T02:28:22.584Z,4.00
2018-06-13T02:29:17.088Z,0.00
2018-06-13T02:29:17.659Z,0.00
2018-06-13T02:29:18.262Z,0.00
2018-06-13T02:29:18.861Z,0.00
2018-06-13T02:29:19.459Z,0.00
2018-06-13T02:29:20.061Z,0.00
2018-06-13T02:29:20.660Z,0.00
2018-06-13T02:29:21.259Z,0.00
2018-06-13T02:30:15.763Z,0.00
2018-06-13T02:30:16.336Z,0.00
2018-06-13T02:30:16.936Z,0.00
2018-06-13T02:30:17.535Z,0.00
2018-06-13T02:30:18.137Z,0.00
2018-06-13T02:30:18.735Z,0.00
2018-06-13T02:30:19.337Z,0.00
2018-06-13T02:30:19.932Z,0.00
2018-06-13T02:31:14.439Z,0.00
2018-06-13T02:31:15.012Z,0.00
2018-06-13T02:31:15.612Z,0.00
2018-06-13T02:31:16.212Z,0.00
2018-06-13T02:31:16.810Z,4.00
2018-06-13T02:31:17.413Z,0.00
2018-06-13T02:31:18.011Z,4.00
2018-06-13T02:31:18.611Z,4.00
2018-06-13T02:32:13.115Z,4.00
2018-06-13T02:32:13.687Z,4.00
2018-06-13T02:32:14.288Z,4.00
2018-06-13T02:32:14.886Z,4.00
2018-06-13T02:32:15.486Z,4.00
2018-06-13T02:32:16.088Z,4.00
2018-06-13T02:32:16.687Z,4.00
2018-06-13T02:32:17.285Z,4.00
2018-06-13T02:33:10.766Z,4.00
2018-06-13T02:33:11.339Z,4.00
2018-06-13T02:33:11.939Z,4.00
2018-06-13T02:33:12.541Z,4.00
2018-06-13T02:33:13.137Z,4.00
2018-06-13T02:33:13.787Z,4.00
2018-06-13T02:33:14.340Z,4.00
2018-06-13T02:33:14.942Z,4.00
2018-06-13T02:34:08.419Z,0.00
2018-06-13T02:34:08.995Z,0.00
2018-06-13T02:34:09.592Z,0.00
2018-06-13T02:34:10.192Z,0.00
2018-06-13T02:34:10.800Z,0.00
2018-06-13T02:34:11.396Z,0.00
2018-06-13T02:34:11.990Z,0.00
2018-06-13T02:34:12.591Z,0.00
2018-06-13T02:35:06.070Z,4.00
2018-06-13T02:35:06.647Z,4.00
2018-06-13T02:35:07.243Z,4.00
2018-06-13T02:35:07.845Z,4.00
2018-06-13T02:35:08.443Z,4.00
2018-06-13T02:35:09.043Z,4.00
2018-06-13T02:35:09.643Z,4.00
2018-06-13T02:35:10.242Z,4.00
2018-06-13T02:36:03.722Z,4.00
2018-06-13T02:36:04.295Z,4.00
2018-06-13T02:36:04.897Z,4.00
2018-06-13T02:36:05.494Z,4.00
2018-06-13T02:36:06.097Z,4.00
2018-06-13T02:36:06.693Z,4.00
2018-06-13T02:36:07.292Z,4.00
2018-06-13T02:36:07.894Z,4.00
2018-06-13T02:37:02.399Z,4.00
2018-06-13T02:37:02.969Z,4.00
2018-06-13T02:37:03.571Z,4.00
2018-06-13T02:37:04.171Z,4.00
2018-06-13T02:37:04.768Z,4.00
2018-06-13T02:37:05.369Z,4.00
2018-06-13T02:37:05.971Z,4.00
2018-06-13T02:37:06.569Z,4.00
2018-06-13T02:38:00.049Z,4.00
2018-06-13T02:38:00.622Z,4.00
2018-06-13T02:38:01.222Z,4.00
2018-06-13T02:38:01.825Z,4.00
2018-06-13T02:38:02.420Z,4.00
2018-06-13T02:38:03.020Z,4.00
2018-06-13T02:38:03.621Z,4.00
2018-06-13T02:38:04.221Z,4.00
2018-06-13T02:38:58.723Z,8.00
2018-06-13T02:38:59.296Z,4.00
2018-06-13T02:38:59.896Z,8.00
2018-06-13T02:39:00.496Z,4.00
2018-06-13T02:39:01.095Z,4.00
2018-06-13T02:39:01.699Z,8.00
2018-06-13T02:39:02.293Z,4.00
2018-06-13T02:39:02.895Z,8.00
2018-06-13T02:39:56.378Z,4.00
2018-06-13T02:39:56.948Z,4.00
2018-06-13T02:39:57.549Z,4.00
2018-06-13T02:39:58.149Z,4.00
2018-06-13T02:39:58.748Z,4.00
2018-06-13T02:39:59.350Z,4.00
2018-06-13T02:39:59.948Z,4.00
2018-06-13T02:40:00.552Z,4.00
2018-06-13T02:40:54.028Z,4.00
2018-06-13T02:40:54.601Z,4.00
2018-06-13T02:40:55.207Z,4.00
2018-06-13T02:40:55.802Z,4.00
2018-06-13T02:40:56.403Z,4.00
2018-06-13T02:40:56.998Z,4.00
2018-06-13T02:40:57.598Z,4.00
2018-06-13T02:40:58.199Z,4.00
2018-06-13T02:41:52.704Z,8.00
2018-06-13T02:41:53.280Z,8.00
2018-06-13T02:41:53.877Z,8.00
2018-06-13T02:41:54.477Z,8.00
2018-06-13T02:41:55.075Z,8.00
2018-06-13T02:41:55.675Z,8.00
2018-06-13T02:41:56.278Z,8.00
2018-06-13T02:41:56.877Z,8.00
2018-06-13T02:42:50.356Z,8.00
2018-06-13T02:42:50.929Z,8.00
2018-06-13T02:42:51.528Z,8.00
2018-06-13T02:42:52.129Z,8.00
2018-06-13T02:42:52.727Z,8.00
2018-06-13T02:42:53.328Z,8.00
2018-06-13T02:42:53.929Z,8.00
2018-06-13T02:42:54.527Z,8.00
2018-06-13T02:43:48.013Z,8.00
2018-06-13T02:43:48.581Z,4.00
2018-06-13T02:43:49.180Z,4.00
2018-06-13T02:43:49.780Z,4.00
2018-06-13T02:43:50.379Z,4.00
2018-06-13T02:43:50.979Z,4.00
2018-06-13T02:43:51.579Z,4.00
2018-06-13T02:43:52.180Z,4.00
2018-06-13T02:44:45.659Z,8.00
2018-06-13T02:44:46.231Z,8.00
2018-06-13T02:44:46.834Z,8.00
2018-06-13T02:44:47.433Z,8.00
2018-06-13T02:44:48.031Z,8.00
2018-06-13T02:44:48.632Z,8.00
2018-06-13T02:44:49.230Z,8.00
2018-06-13T02:44:49.831Z,8.00
2018-06-13T02:45:44.335Z,8.00
2018-06-13T02:45:44.907Z,8.00
2018-06-13T02:45:45.507Z,8.00
2018-06-13T02:45:46.107Z,8.00
2018-06-13T02:45:46.706Z,8.00
2018-06-13T02:45:47.309Z,8.00
2018-06-13T02:45:47.910Z,8.00
2018-06-13T02:45:48.506Z,8.00
2018-06-13T02:46:41.987Z,8.00
2018-06-13T02:46:42.566Z,8.00
2018-06-13T02:46:43.159Z,8.00
2018-06-13T02:46:43.760Z,8.00
2018-06-13T02:46:44.360Z,8.00
2018-06-13T02:46:44.959Z,8.00
2018-06-13T02:46:45.562Z,8.00
2018-06-13T02:46:46.167Z,8.00
2018-06-13T02:47:39.640Z,12.00
2018-06-13T02:47:40.213Z,12.00
2018-06-13T02:47:40.811Z,12.00
2018-06-13T02:47:41.411Z,12.00
2018-06-13T02:47:42.011Z,12.00
2018-06-13T02:47:42.611Z,12.00
2018-06-13T02:47:43.209Z,12.00
2018-06-13T02:47:43.810Z,12.00
2018-06-13T02:48:37.806Z,12.00
2018-06-13T02:48:38.373Z,12.00
2018-06-13T02:48:38.974Z,12.00
2018-06-13T02:48:39.573Z,12.00
2018-06-13T02:48:40.175Z,12.00
2018-06-13T02:48:40.773Z,12.00
2018-06-13T02:48:41.374Z,12.00
2018-06-13T02:49:35.864Z,12.00
2018-06-13T02:49:36.435Z,12.00
2018-06-13T02:49:37.035Z,12.00
2018-06-13T02:49:37.635Z,12.00
2018-06-13T02:49:38.233Z,12.00
2018-06-13T02:49:38.836Z,12.00
2018-06-13T02:49:39.436Z,12.00
2018-06-13T02:49:40.037Z,12.00
2018-06-13T02:50:33.518Z,12.00
2018-06-13T02:50:34.087Z,12.00
2018-06-13T02:50:34.687Z,12.00
2018-06-13T02:50:35.287Z,12.00
2018-06-13T02:50:35.889Z,12.00
2018-06-13T02:50:36.486Z,12.00
2018-06-13T02:50:37.085Z,12.00
2018-06-13T02:50:37.686Z,12.00
2018-06-13T02:51:31.170Z,16.00
2018-06-13T02:51:31.740Z,16.00
2018-06-13T02:51:32.343Z,16.00
2018-06-13T02:51:32.939Z,12.00
2018-06-13T02:51:33.539Z,12.00
2018-06-13T02:51:34.139Z,12.00
2018-06-13T02:51:34.739Z,12.00
2018-06-13T02:51:35.339Z,12.00
2018-06-13T02:52:29.843Z,16.00
2018-06-13T02:52:30.414Z,16.00
2018-06-13T02:52:31.013Z,16.00
2018-06-13T02:52:31.615Z,16.00
2018-06-13T02:52:32.214Z,16.00
2018-06-13T02:52:32.814Z,16.00
2018-06-13T02:52:33.413Z,16.00
2018-06-13T02:52:34.013Z,16.00
2018-06-13T02:53:28.517Z,16.00
2018-06-13T02:53:29.089Z,16.00
2018-06-13T02:53:29.690Z,16.00
2018-06-13T02:53:30.294Z,16.00
2018-06-13T02:53:30.892Z,16.00
2018-06-13T02:53:31.508Z,16.00
2018-06-13T02:53:32.088Z,16.00
2018-06-13T02:53:32.689Z,16.00
2018-06-13T02:54:27.193Z,16.00
2018-06-13T02:54:27.765Z,16.00
2018-06-13T02:54:28.366Z,16.00
2018-06-13T02:54:28.966Z,16.00
2018-06-13T02:54:29.565Z,16.00
2018-06-13T02:54:30.167Z,16.00
2018-06-13T02:54:30.774Z,16.00
2018-06-13T02:54:31.365Z,16.00
2018-06-13T02:55:25.868Z,20.00
2018-06-13T02:55:26.440Z,20.00
2018-06-13T02:55:27.040Z,16.00
2018-06-13T02:55:27.643Z,16.00
2018-06-13T02:55:28.241Z,16.00
2018-06-13T02:55:28.840Z,16.00
2018-06-13T02:55:29.440Z,16.00
2018-06-13T02:55:30.041Z,16.00
2018-06-13T02:56:24.033Z,20.00
2018-06-13T02:56:24.609Z,20.00
2018-06-13T02:56:25.207Z,20.00
2018-06-13T02:56:25.805Z,20.00
2018-06-13T02:56:26.404Z,20.00
2018-06-13T02:56:27.004Z,20.00
2018-06-13T02:56:27.607Z,20.00
2018-06-13T02:57:21.174Z,24.00
2018-06-13T02:57:21.746Z,24.00
2018-06-13T02:57:22.345Z,24.00
2018-06-13T02:57:22.946Z,24.00
2018-06-13T02:57:23.545Z,24.00
2018-06-13T02:57:24.146Z,24.00
2018-06-13T02:57:24.745Z,24.00
2018-06-13T02:57:25.345Z,24.00
2018-06-13T02:58:18.824Z,24.00
2018-06-13T02:58:19.397Z,24.00
2018-06-13T02:58:19.996Z,24.00
2018-06-13T02:58:20.597Z,24.00
2018-06-13T02:58:21.202Z,24.00
2018-06-13T02:58:21.796Z,24.00
2018-06-13T02:58:22.396Z,24.00
2018-06-13T02:58:22.999Z,24.00
2018-06-13T02:59:17.502Z,24.00
2018-06-13T02:59:18.071Z,24.00
2018-06-13T02:59:18.674Z,24.00
2018-06-13T02:59:19.278Z,24.00
2018-06-13T02:59:19.873Z,24.00
2018-06-13T02:59:20.480Z,24.00
2018-06-13T02:59:21.072Z,24.00
2018-06-13T02:59:21.672Z,24.00
2018-06-13T03:00:16.175Z,24.00
2018-06-13T03:00:16.749Z,24.00
2018-06-13T03:00:17.348Z,24.00
2018-06-13T03:00:17.947Z,24.00
2018-06-13T03:00:18.555Z,24.00
2018-06-13T03:00:19.150Z,24.00
2018-06-13T03:00:19.747Z,28.00
2018-06-13T03:00:20.348Z,28.00
2018-06-13T03:01:14.853Z,28.00
2018-06-13T03:01:15.423Z,28.00
2018-06-13T03:01:16.026Z,28.00
2018-06-13T03:01:16.623Z,28.00
2018-06-13T03:01:17.223Z,28.00
2018-06-13T03:01:17.825Z,28.00
2018-06-13T03:01:18.423Z,28.00
2018-06-13T03:01:19.026Z,28.00
2018-06-13T03:02:12.504Z,32.00
2018-06-13T03:02:13.077Z,32.00
2018-06-13T03:02:13.683Z,32.00
2018-06-13T03:02:14.278Z,36.00
2018-06-13T03:02:14.873Z,32.00
2018-06-13T03:02:15.474Z,32.00
2018-06-13T03:02:16.073Z,32.00
2018-06-13T03:02:16.673Z,32.00
2018-06-13T03:03:10.159Z,36.00
2018-06-13T03:03:10.730Z,36.00
2018-06-13T03:03:11.327Z,36.00
2018-06-13T03:03:11.927Z,36.00
2018-06-13T03:03:12.526Z,36.00
2018-06-13T03:03:13.148Z,36.00
2018-06-13T03:03:13.728Z,36.00
2018-06-13T03:03:14.326Z,36.00
2018-06-13T03:04:08.829Z,40.00
2018-06-13T03:04:09.401Z,40.00
2018-06-13T03:04:10.002Z,40.00
2018-06-13T03:04:10.602Z,40.00
2018-06-13T03:04:11.201Z,40.00
2018-06-13T03:04:11.801Z,40.00
2018-06-13T03:04:12.402Z,40.00
2018-06-13T03:04:13.004Z,40.00
2018-06-13T03:05:07.505Z,44.00
2018-06-13T03:05:08.081Z,44.00
2018-06-13T03:05:08.677Z,44.00
2018-06-13T03:05:09.276Z,44.00
2018-06-13T03:05:09.876Z,44.00
2018-06-13T03:05:10.477Z,44.00
2018-06-13T03:05:11.077Z,44.00
2018-06-13T03:05:11.676Z,44.00
2018-06-13T03:06:05.669Z,44.00
2018-06-13T03:06:06.250Z,48.00
2018-06-13T03:06:06.853Z,48.00
2018-06-13T03:06:07.443Z,48.00
2018-06-13T03:06:08.042Z,48.00
2018-06-13T03:06:08.646Z,48.00
2018-06-13T03:06:09.241Z,48.00
2018-06-13T03:07:02.811Z,52.00
2018-06-13T03:07:03.382Z,52.00
2018-06-13T03:07:03.985Z,48.00
2018-06-13T03:07:04.582Z,52.00
2018-06-13T03:07:05.182Z,48.00